CDT,Max TemperatureF,Mean TemperatureF,Min TemperatureF,Max Dew PointF,MeanDew PointF,Min DewpointF,Max Humidity, Mean Humidity, Min Humidity, Max Sea Level PressureIn, Mean Sea Level PressureIn, Min Sea Level PressureIn, Max VisibilityMiles, Mean VisibilityMiles, Min VisibilityMiles, Max Wind SpeedMPH, Mean Wind SpeedMPH, Max Gust SpeedMPH,PrecipitationIn, CloudCover, Events, WindDirDegrees
2013-4-1,51,41,30,27,24,22,78,55,32,30.30,30.23,30.16,10,10,10,17,7,22,0.00,3,,49
2013-4-2,56,40,23,28,25,20,81,56,30,30.26,30.21,30.17,10,10,10,18,8,24,0.00,0,,206
2013-4-3,58,42,26,31,26,22,92,59,25,30.25,30.20,30.13,10,10,10,22,11,30,0.00,0,,194
2013-4-4,65,45,25,35,30,23,85,58,30,30.18,30.13,30.07,10,10,7,17,7,24,0.00,0,,108
2013-4-5,77,56,34,36,31,28,82,50,18,30.05,29.81,29.59,10,10,8,25,9,35,0.00,0,,145
2013-4-6,73,58,43,38,34,28,71,47,22,29.81,29.73,29.61,10,10,10,30,13,40,T,2,,313
2013-4-7,67,52,36,48,41,31,93,69,44,29.82,29.72,29.61,10,10,4,28,6,37,0.20,4,Rain,146
2013-4-8,75,54,33,54,40,31,100,62,23,29.68,29.62,29.51,10,9,2,47,14,60,0.38,4,Rain-Thunderstorm,64
2013-4-9,33,25,17,30,17,12,89,81,73,30.27,29.97,29.54,10,4,0,51,20,64,0.43,8,Fog-Rain-Snow-Thunderstorm,3
2013-4-10,26,23,19,20,17,13,84,79,73,30.24,30.09,29.94,10,7,1,24,15,32,0.02,8,Rain-Snow,335
2013-4-11,35,27,19,23,20,16,84,74,63,30.01,29.86,29.74,10,9,2,23,14,28,T,8,Rain-Snow,315
2013-4-12,49,37,25,36,29,22,92,71,49,30.05,29.98,29.91,10,10,10,21,8,25,T,4,Rain,316
2013-4-13,64,44,23,45,33,23,100,72,44,30.06,29.78,29.39,10,9,0,25,11,37,0.00,3,Fog,159
2013-4-14,54,43,32,46,33,20,86,57,28,29.78,29.49,29.29,10,10,5,43,20,53,0.01,3,Rain,304
2013-4-15,47,38,28,24,20,15,69,52,34,30.11,29.94,29.72,10,10,9,18,10,23,T,5,Snow,344
2013-4-16,42,36,29,30,27,25,92,74,55,30.23,30.15,30.08,10,6,1,22,11,26,0.18,8,Snow,66
2013-4-17,34,31,27,29,26,22,92,85,78,30.15,30.05,29.93,10,7,1,29,21,39,0.02,8,Rain-Snow,15
2013-4-18,35,30,25,22,20,17,88,70,51,30.15,30.07,29.98,10,6,2,31,19,41,0.01,7,Snow,334
2013-4-19,52,37,21,29,24,17,84,63,41,30.11,30.05,30.02,10,10,10,25,11,31,0.00,2,,334
2013-4-20,57,43,28,32,28,24,85,59,33,30.10,30.04,29.97,10,10,10,20,11,30,0.00,1,,125
2013-4-21,66,50,33,43,36,30,96,64,31,30.07,30.02,29.98,10,10,7,25,8,31,T,2,Rain,57
2013-4-22,43,36,28,39,30,21,92,81,69,30.42,30.12,29.95,10,8,1,36,19,43,0.02,8,Rain,43
2013-4-23,43,31,18,20,16,14,77,55,32,30.42,30.31,30.21,10,10,10,18,10,25,0.00,2,,350
2013-4-24,58,36,14,28,19,12,88,55,22,30.28,30.21,30.16,10,10,10,33,10,41,0.00,1,,302
2013-4-25,74,48,21,30,26,19,96,58,19,30.25,30.05,29.84,10,10,10,30,12,37,0.00,2,,184
2013-4-26,76,55,33,35,27,23,76,45,14,30.14,30.03,29.89,10,10,10,23,8,30,0.00,0,,22
2013-4-27,80,56,31,40,32,22,89,51,13,30.15,30.02,29.86,10,10,10,18,6,23,0.00,0,,198
2013-4-28,87,63,38,41,35,28,92,52,12,29.85,29.77,29.67,10,10,8,24,10,32,0.00,0,,331
2013-4-29,83,66,48,45,38,34,66,43,20,29.81,29.64,29.42,10,10,10,21,9,26,T,2,,149
2013-4-30,68,55,42,45,33,21,71,47,23,30.02,29.72,29.44,10,10,10,32,17,39,T,1,Rain-Thunderstorm,18